Aeroporto :
LOGIN :

Iscrizione | Disclaimer

   EN    FR    IT 

 










Sommario :    VFR   VFR Marginale   IFR   IFR Intensivo   IFR Molto Intensivo
Visibilità : 
Base nubi : 
>= 8 km
>= 3000ft
5 / 8 km
1000 / 3000 ft
1500m / 5 km
500 / 1000 ft
800 / 1500m
200 / 500 ft
< 800m
< 200 ft
Simboli :   Temporali  Nebbia  Neve Forte  Precipitazioni Forti  Vento > 20 kt
SIGMETs :   Varie  Temporali  Ghiacco  Turbolenza  Onda orograficha  Ceneri Vulcaniche







- Altitudine del aeroporto : 446 ft
- Codice IATA : VNE
- Carte del aeroporto


LFRV - Vannes-Meucon

ULTIMO METAR :
  • 181100Z AUTO 24006KT 190V280 9999 BKN006 BKN012 BKN029 18/17 Q1015

METARs OBSOLETI :
  • 181030Z AUTO 24008KT 210V270 7000 BKN005 OVC010 18/18 Q1015
  • 181000Z AUTO 22006KT 180V250 4800 BR OVC004 18/18 Q1015
  • 180930Z AUTO 24006KT 210V280 4500 DZ BR BKN003 OVC007 18/18 Q1015
  • 180900Z AUTO 25007KT 210V280 3100 BR BKN004 OVC008 18/18 Q1014
  • 180830Z AUTO 23008KT 190V270 7000 -RADZ BKN010 OVC024 18/17 Q1014

TAF N/A
Nessun NOTAM noto per questo aeroporto.



MetMap, La meteo Aeronautica in un colpo d'occhio ! - Copyright ORBIFLY Dicembre 2007 - Disclaimer

ORBIFLY MET'MAP TEAM :

Programmazione e sviluppo : Alexandra Zaïnal
Concezione e sviluppo : Baudouin d'Aumeries
Co-Programmazione e sviluppo : Marc-Olivier Méhu
Supporto tecnico e logistico : Manuel Goepfert
Aiuto per la traduzione : Arnaldo La Scala

Contatto : metmap@orbifly.com




FONTI E CREDITI :

   NOAA